createdAt,value
2019-05-25T00:00:58.451Z,11.08
2019-05-25T00:04:05.293Z,11.05
2019-05-25T00:07:11.675Z,10.99
2019-05-25T00:10:18.167Z,10.96
2019-05-25T00:13:24.519Z,10.92
2019-05-25T00:16:31.362Z,10.87
2019-05-25T00:19:37.741Z,10.84
2019-05-25T00:22:44.048Z,10.81
2019-05-25T00:25:50.425Z,10.74
2019-05-25T00:28:56.837Z,10.64
2019-05-25T00:32:03.263Z,10.64
2019-05-25T00:35:10.653Z,10.66
2019-05-25T00:38:17.083Z,10.58
2019-05-25T00:41:23.494Z,10.55
2019-05-25T00:44:29.854Z,10.53
2019-05-25T00:47:36.210Z,10.54
2019-05-25T00:50:42.556Z,10.51
2019-05-25T00:53:49.393Z,10.51
2019-05-25T00:56:55.839Z,10.48
2019-05-25T01:00:02.196Z,10.42
2019-05-25T01:03:10.491Z,10.41
2019-05-25T01:06:17.255Z,10.39
2019-05-25T01:09:23.634Z,10.36
2019-05-25T01:12:30.115Z,10.32
2019-05-25T01:15:36.640Z,10.29
2019-05-25T01:18:43.087Z,10.29
2019-05-25T01:21:49.545Z,10.23
2019-05-25T01:24:55.988Z,10.20
2019-05-25T01:28:02.361Z,10.23
2019-05-25T01:31:08.921Z,10.23
2019-05-25T01:34:15.344Z,10.19
2019-05-25T01:37:21.725Z,10.12
2019-05-25T01:40:28.068Z,10.13
2019-05-25T01:43:34.485Z,10.11
2019-05-25T01:46:40.846Z,10.09
2019-05-25T01:49:47.759Z,10.05
2019-05-25T01:52:54.129Z,10.05
2019-05-25T01:56:01.179Z,10.03
2019-05-25T01:59:07.526Z,9.98
2019-05-25T02:02:14.201Z,10.00
2019-05-25T02:05:20.565Z,10.00
2019-05-25T02:08:27.390Z,9.93
2019-05-25T02:11:33.783Z,9.89
2019-05-25T02:14:40.186Z,9.86
2019-05-25T02:17:46.582Z,9.87
2019-05-25T02:20:53.041Z,9.85
2019-05-25T02:23:59.791Z,9.86
2019-05-25T02:27:06.650Z,9.83
2019-05-25T02:30:13.118Z,9.83
2019-05-25T02:33:19.559Z,9.80
2019-05-25T02:36:25.962Z,9.78
2019-05-25T02:39:32.359Z,9.75
2019-05-25T02:42:38.792Z,9.76
2019-05-25T02:45:45.601Z,9.77
2019-05-25T02:48:51.989Z,9.77
2019-05-25T02:51:58.343Z,9.77
2019-05-25T02:55:05.235Z,9.77
2019-05-25T02:58:11.956Z,9.79
2019-05-25T03:01:18.293Z,9.79
2019-05-25T03:04:24.690Z,9.78
2019-05-25T03:07:30.942Z,9.77
2019-05-25T03:10:37.813Z,9.78
2019-05-25T03:13:44.565Z,9.76
2019-05-25T03:16:51.072Z,9.77
2019-05-25T03:19:57.578Z,9.79
2019-05-25T03:23:04.206Z,9.76
2019-05-25T03:26:10.570Z,9.77
2019-05-25T03:29:17.086Z,9.78
2019-05-25T03:32:23.438Z,9.78
2019-05-25T03:35:30.001Z,9.79
2019-05-25T03:38:36.327Z,9.78
2019-05-25T03:41:42.880Z,9.79
2019-05-25T03:44:49.295Z,9.78
2019-05-25T03:47:55.677Z,9.78
2019-05-25T03:51:01.945Z,9.78
2019-05-25T03:54:08.481Z,9.74
2019-05-25T03:57:14.882Z,9.74
2019-05-25T04:00:35.316Z,9.81
2019-05-25T04:03:41.653Z,9.83
2019-05-25T04:06:48.122Z,9.84
2019-05-25T04:09:54.487Z,9.79
2019-05-25T04:13:01.075Z,9.87
2019-05-25T04:16:07.419Z,9.90
2019-05-25T04:19:14.137Z,9.93
2019-05-25T04:22:20.403Z,9.94
2019-05-25T04:25:26.903Z,9.96
2019-05-25T04:28:33.183Z,9.98
2019-05-25T04:31:39.680Z,10.01
2019-05-25T04:34:46.017Z,10.04
2019-05-25T04:37:52.532Z,10.07
2019-05-25T04:40:58.979Z,10.07
2019-05-25T04:44:05.534Z,10.09
2019-05-25T04:47:26.185Z,10.13
2019-05-25T04:50:20.041Z,10.16
2019-05-25T04:53:26.506Z,10.18
2019-05-25T04:56:39.544Z,10.19
2019-05-25T04:59:41.344Z,10.23
2019-05-25T05:02:48.269Z,10.26
2019-05-25T05:05:54.645Z,10.29
2019-05-25T05:09:01.076Z,10.34
2019-05-25T05:12:08.696Z,10.37
2019-05-25T05:15:15.575Z,10.38
2019-05-25T05:18:21.998Z,10.43
2019-05-25T05:21:28.365Z,10.48
2019-05-25T05:24:34.633Z,10.54
2019-05-25T05:27:41.020Z,10.57
2019-05-25T05:30:47.411Z,10.53
2019-05-25T05:33:53.835Z,10.56
2019-05-25T05:37:00.183Z,10.58
2019-05-25T05:40:08.850Z,10.58
2019-05-25T05:43:15.209Z,10.66
2019-05-25T05:46:21.907Z,10.72
2019-05-25T05:49:28.525Z,10.74
2019-05-25T05:52:38.304Z,10.75
2019-05-25T05:55:44.719Z,10.80
2019-05-25T05:58:51.139Z,10.88
2019-05-25T06:01:57.497Z,10.89
2019-05-25T06:05:04.567Z,10.93
2019-05-25T06:08:10.921Z,10.94
2019-05-25T06:11:17.609Z,10.98
2019-05-25T06:14:23.897Z,10.97
2019-05-25T06:17:30.495Z,11.01
2019-05-25T06:20:36.800Z,11.07
2019-05-25T06:23:43.194Z,11.14
2019-05-25T06:26:49.571Z,11.20
2019-05-25T06:29:56.379Z,11.20
2019-05-25T06:33:02.642Z,11.15
2019-05-25T06:36:09.019Z,11.19
2019-05-25T06:39:17.622Z,11.18
2019-05-25T06:42:23.922Z,11.16
2019-05-25T06:45:30.312Z,11.23
2019-05-25T06:48:37.133Z,11.33
2019-05-25T06:51:43.569Z,11.36
2019-05-25T06:54:50.157Z,11.35
2019-05-25T06:57:56.528Z,11.42
2019-05-25T07:01:02.965Z,11.45
2019-05-25T07:04:09.517Z,11.46
2019-05-25T07:07:17.210Z,11.42
2019-05-25T07:10:25.534Z,11.44
2019-05-25T07:13:31.894Z,11.48
2019-05-25T07:16:38.393Z,11.42
2019-05-25T07:19:45.286Z,11.49
2019-05-25T07:22:52.475Z,11.49
2019-05-25T07:25:59.128Z,11.56
2019-05-25T07:29:05.580Z,11.57
2019-05-25T07:32:12.120Z,11.48
2019-05-25T07:35:18.542Z,11.44
2019-05-25T07:38:25.024Z,11.49
2019-05-25T07:41:33.659Z,11.47
2019-05-25T07:44:40.197Z,11.50
2019-05-25T07:47:46.529Z,11.49
2019-05-25T07:50:53.034Z,11.55
2019-05-25T07:54:00.388Z,11.56
2019-05-25T07:57:07.837Z,11.56
2019-05-25T08:00:14.403Z,11.59
2019-05-25T08:03:20.801Z,11.63
2019-05-25T08:06:27.142Z,11.62
2019-05-25T08:09:34.011Z,11.76
2019-05-25T08:12:40.279Z,11.81
2019-05-25T08:15:46.916Z,11.46
2019-05-25T08:18:53.212Z,11.48
2019-05-25T08:22:00.066Z,11.57
2019-05-25T08:25:06.657Z,11.61
2019-05-25T08:28:12.920Z,11.62
2019-05-25T08:31:19.275Z,11.38
2019-05-25T08:34:25.764Z,11.21
2019-05-25T08:37:32.281Z,11.39
2019-05-25T08:40:39.028Z,11.48
2019-05-25T08:43:47.589Z,11.45
2019-05-25T08:46:57.235Z,11.49
2019-05-25T08:50:07.592Z,11.42
2019-05-25T08:53:16.311Z,11.40
2019-05-25T08:56:22.723Z,11.32
2019-05-25T08:59:29.524Z,11.40
2019-05-25T09:02:35.947Z,11.21
2019-05-25T09:05:42.380Z,11.28
2019-05-25T09:08:48.777Z,11.38
2019-05-25T09:11:55.401Z,11.27
2019-05-25T09:15:01.740Z,11.29
2019-05-25T09:18:11.171Z,11.30
2019-05-25T09:21:17.849Z,10.75
2019-05-25T09:24:25.183Z,11.50
2019-05-25T09:27:31.516Z,11.58
2019-05-25T09:30:37.996Z,11.72
2019-05-25T09:33:44.345Z,11.78
2019-05-25T09:36:50.974Z,11.49
2019-05-25T09:39:58.280Z,11.46
2019-05-25T09:43:04.665Z,11.62
2019-05-25T09:46:11.036Z,11.49
2019-05-25T09:49:17.555Z,11.67
2019-05-25T09:52:23.924Z,11.77
2019-05-25T09:55:30.416Z,11.79
2019-05-25T09:58:36.873Z,11.89
2019-05-25T10:01:43.410Z,11.91
2019-05-25T10:04:49.751Z,11.84
2019-05-25T10:07:59.075Z,11.87
2019-05-25T10:11:05.532Z,11.78
2019-05-25T10:14:12.704Z,11.91
2019-05-25T10:17:18.981Z,11.90
2019-05-25T10:20:26.279Z,12.06
2019-05-25T10:23:32.631Z,12.16
2019-05-25T10:26:39.402Z,12.33
2019-05-25T10:29:45.914Z,12.33
2019-05-25T10:32:52.347Z,12.52
2019-05-25T10:36:01.635Z,12.56
2019-05-25T10:39:09.020Z,12.48
2019-05-25T10:42:27.510Z,12.48
2019-05-25T10:45:34.089Z,12.39
2019-05-25T10:48:40.534Z,12.30
2019-05-25T10:51:47.163Z,12.30
2019-05-25T10:54:53.507Z,12.34
2019-05-25T10:57:59.983Z,12.31
2019-05-25T11:01:06.401Z,12.48
2019-05-25T11:04:12.793Z,12.65
2019-05-25T11:07:19.553Z,12.61
2019-05-25T11:10:26.169Z,12.39
2019-05-25T11:13:33.647Z,12.39
2019-05-25T11:16:40.574Z,12.48
2019-05-25T11:19:46.944Z,12.39
2019-05-25T11:22:53.415Z,12.13
2019-05-25T11:25:59.791Z,12.31
2019-05-25T11:29:07.000Z,12.17
2019-05-25T11:32:13.452Z,12.34
2019-05-25T11:35:20.995Z,12.34
2019-05-25T11:38:27.701Z,12.43
2019-05-25T11:41:34.160Z,12.43
2019-05-25T11:44:40.516Z,12.40
2019-05-25T11:47:47.026Z,12.45
2019-05-25T11:50:53.377Z,12.53
2019-05-25T11:53:59.988Z,12.68
2019-05-25T11:57:06.271Z,12.92
2019-05-25T12:00:24.240Z,13.07
2019-05-25T12:03:22.399Z,13.11
2019-05-25T12:06:29.138Z,13.09
2019-05-25T12:09:36.255Z,12.98
2019-05-25T12:12:43.991Z,12.98
2019-05-25T12:15:50.323Z,13.14
2019-05-25T12:18:57.028Z,14.58
2019-05-25T12:22:03.376Z,14.95
2019-05-25T12:25:09.911Z,14.51
2019-05-25T12:28:34.678Z,14.60
2019-05-25T12:31:41.517Z,14.15
2019-05-25T12:34:47.910Z,14.38
2019-05-25T12:37:54.275Z,14.17
2019-05-25T12:41:00.622Z,14.19
2019-05-25T12:44:07.256Z,13.83
2019-05-25T12:47:14.577Z,13.68
2019-05-25T12:50:21.675Z,13.60
2019-05-25T12:53:28.217Z,13.62
2019-05-25T12:56:35.838Z,14.65
2019-05-25T12:59:42.146Z,14.65
2019-05-25T13:02:48.613Z,15.38
2019-05-25T13:05:54.974Z,15.89
2019-05-25T13:09:01.508Z,16.84
2019-05-25T13:12:08.824Z,17.21
2019-05-25T13:15:15.660Z,17.30
2019-05-25T13:18:22.102Z,17.01
2019-05-25T13:21:31.537Z,16.75
2019-05-25T13:24:38.056Z,15.84
2019-05-25T13:27:44.625Z,15.67
2019-05-25T13:30:51.066Z,15.25
2019-05-25T13:33:57.723Z,14.99
2019-05-25T13:37:04.149Z,14.87
2019-05-25T13:40:11.050Z,15.44
2019-05-25T13:43:17.327Z,16.61
2019-05-25T13:46:23.950Z,16.97
2019-05-25T13:49:30.348Z,16.63
2019-05-25T13:52:36.745Z,16.91
2019-05-25T13:55:43.199Z,16.82
2019-05-25T13:58:49.720Z,17.22
2019-05-25T14:01:56.109Z,16.75
2019-05-25T14:05:02.733Z,17.19
2019-05-25T14:08:09.181Z,16.49
2019-05-25T14:11:15.695Z,16.40
2019-05-25T14:14:24.410Z,16.34
2019-05-25T14:17:30.249Z,16.88
2019-05-25T14:20:36.949Z,17.08
2019-05-25T14:23:44.237Z,17.97
2019-05-25T14:26:50.978Z,18.08
2019-05-25T14:29:57.478Z,18.42
2019-05-25T14:33:03.996Z,18.22
2019-05-25T14:36:11.291Z,19.00
2019-05-25T14:39:17.716Z,18.50
2019-05-25T14:42:24.278Z,17.65
2019-05-25T14:45:30.887Z,17.71
2019-05-25T14:48:37.399Z,17.49
2019-05-25T14:51:43.851Z,17.45
2019-05-25T14:54:51.401Z,17.82
2019-05-25T14:57:58.221Z,18.42
2019-05-25T15:01:04.866Z,18.10
2019-05-25T15:04:11.330Z,18.25
2019-05-25T15:07:17.824Z,18.24
2019-05-25T15:10:24.269Z,17.67
2019-05-25T15:13:31.246Z,17.84
2019-05-25T15:16:39.389Z,17.92
2019-05-25T15:19:46.223Z,17.92
2019-05-25T15:22:52.605Z,18.08
2019-05-25T15:25:59.495Z,17.86
2019-05-25T15:29:05.907Z,17.79
2019-05-25T15:32:20.181Z,17.59
2019-05-25T15:35:20.873Z,17.84
2019-05-25T15:38:27.629Z,17.47
2019-05-25T15:41:33.982Z,17.53
2019-05-25T15:44:40.372Z,17.64
2019-05-25T15:47:46.792Z,17.62
2019-05-25T15:50:53.465Z,17.58
2019-05-25T15:54:00.017Z,17.64
2019-05-25T15:57:06.929Z,17.68
2019-05-25T16:00:15.544Z,17.60
2019-05-25T16:03:22.126Z,17.83
2019-05-25T16:06:28.615Z,17.82
2019-05-25T16:09:35.242Z,17.75
2019-05-25T16:12:44.110Z,17.45
2019-05-25T16:15:50.971Z,17.52
2019-05-25T16:18:57.343Z,17.34
2019-05-25T16:22:03.894Z,17.16
2019-05-25T16:25:10.898Z,16.89
2019-05-25T16:28:18.339Z,16.89
2019-05-25T16:31:25.852Z,16.91
2019-05-25T16:34:32.760Z,17.05
2019-05-25T16:37:39.593Z,16.79
2019-05-25T16:40:46.533Z,16.55
2019-05-25T16:43:53.080Z,16.22
2019-05-25T16:46:59.681Z,16.29
2019-05-25T16:50:06.363Z,16.00
2019-05-25T16:53:13.921Z,16.09
2019-05-25T16:56:20.370Z,15.99
2019-05-25T16:59:26.805Z,15.76
2019-05-25T17:02:33.192Z,15.92
2019-05-25T17:05:40.097Z,15.74
2019-05-25T17:08:48.325Z,15.75
2019-05-25T17:11:54.904Z,15.99
2019-05-25T17:15:01.405Z,16.10
2019-05-25T17:18:08.291Z,15.97
2019-05-25T17:21:14.753Z,15.92
2019-05-25T17:24:21.262Z,15.88
2019-05-25T17:27:28.755Z,15.78
2019-05-25T17:30:41.953Z,15.73
2019-05-25T17:33:48.356Z,15.72
2019-05-25T17:36:54.913Z,15.61
2019-05-25T17:40:01.334Z,15.62
2019-05-25T17:43:08.286Z,15.37
2019-05-25T17:46:14.735Z,15.31
2019-05-25T17:49:21.284Z,15.31
2019-05-25T17:52:27.745Z,15.35
2019-05-25T17:55:34.223Z,15.33
2019-05-25T17:58:40.512Z,15.41
2019-05-25T18:01:47.630Z,15.34
2019-05-25T18:04:54.114Z,15.31
2019-05-25T18:08:00.618Z,15.38
2019-05-25T18:11:07.101Z,15.30
2019-05-25T18:14:13.590Z,15.27
2019-05-25T18:17:21.142Z,15.31
2019-05-25T18:20:28.896Z,15.24
2019-05-25T18:23:35.309Z,15.21
2019-05-25T18:26:41.950Z,15.25
2019-05-25T18:29:48.362Z,15.16
2019-05-25T18:32:55.273Z,15.14
2019-05-25T18:36:04.430Z,15.15
2019-05-25T18:39:10.985Z,15.11
2019-05-25T18:42:17.428Z,14.92
2019-05-25T18:45:24.156Z,14.87
2019-05-25T18:48:34.271Z,14.73
2019-05-25T18:51:38.654Z,14.58
2019-05-25T18:54:45.094Z,14.67
2019-05-25T18:57:51.843Z,14.62
2019-05-25T19:00:58.570Z,14.46
2019-05-25T19:04:05.503Z,14.33
2019-05-25T19:07:11.945Z,14.33
2019-05-25T19:10:18.600Z,14.36
2019-05-25T19:13:24.952Z,14.30
2019-05-25T19:16:33.367Z,14.22
2019-05-25T19:19:40.033Z,14.09
2019-05-25T19:22:46.654Z,14.19
2019-05-25T19:25:53.079Z,14.12
2019-05-25T19:29:00.047Z,13.95
2019-05-25T19:32:06.386Z,14.00
2019-05-25T19:35:15.038Z,13.88
2019-05-25T19:38:21.396Z,13.89
2019-05-25T19:41:27.680Z,13.91
2019-05-25T19:44:36.501Z,13.89
2019-05-25T19:47:43.469Z,13.97
2019-05-25T19:50:50.232Z,13.76
2019-05-25T19:53:56.631Z,13.62
2019-05-25T19:57:03.072Z,13.43
2019-05-25T20:00:09.910Z,13.59
2019-05-25T20:03:18.812Z,13.52
2019-05-25T20:06:27.231Z,13.37
2019-05-25T20:09:33.576Z,13.46
2019-05-25T20:12:41.538Z,13.41
2019-05-25T20:15:47.979Z,13.32
2019-05-25T20:18:54.532Z,13.28
2019-05-25T20:22:00.826Z,13.10
2019-05-25T20:25:07.475Z,13.04
2019-05-25T20:28:13.940Z,12.79
2019-05-25T20:31:20.913Z,12.79
2019-05-25T20:34:27.733Z,12.88
2019-05-25T20:37:34.620Z,12.72
2019-05-25T20:40:41.108Z,12.79
2019-05-25T20:43:47.527Z,12.80
2019-05-25T20:46:54.247Z,12.46
2019-05-25T20:50:01.055Z,12.68
2019-05-25T20:53:08.009Z,12.61
2019-05-25T20:56:14.477Z,12.60
2019-05-25T20:59:20.852Z,12.49
2019-05-25T21:02:27.615Z,12.55
2019-05-25T21:05:48.970Z,12.43
2019-05-25T21:08:43.625Z,12.36
2019-05-25T21:11:50.057Z,12.44
2019-05-25T21:14:56.579Z,12.40
2019-05-25T21:18:03.290Z,12.44
2019-05-25T21:21:11.111Z,12.41
2019-05-25T21:24:17.891Z,12.37
2019-05-25T21:27:24.308Z,12.28
2019-05-25T21:30:31.919Z,12.28
2019-05-25T21:33:38.339Z,12.26
2019-05-25T21:36:46.027Z,12.29
2019-05-25T21:39:53.587Z,12.18
2019-05-25T21:43:02.580Z,12.21
2019-05-25T21:46:09.122Z,12.16
2019-05-25T21:49:16.785Z,12.10
2019-05-25T21:52:23.820Z,12.07
2019-05-25T21:55:30.181Z,12.13
2019-05-25T21:58:37.622Z,12.17
2019-05-25T22:01:46.000Z,12.06
2019-05-25T22:04:52.743Z,12.07
2019-05-25T22:07:59.511Z,12.09
2019-05-25T22:11:06.007Z,11.97
2019-05-25T22:14:12.480Z,11.97
2019-05-25T22:17:19.391Z,12.01
2019-05-25T22:20:26.554Z,12.04
2019-05-25T22:23:32.815Z,12.07
2019-05-25T22:26:39.391Z,12.07
2019-05-25T22:29:45.925Z,12.07
2019-05-25T22:32:54.164Z,12.13
2019-05-25T22:36:01.003Z,12.07
2019-05-25T22:39:08.372Z,12.13
2019-05-25T22:42:15.231Z,12.12
2019-05-25T22:45:21.958Z,12.11
2019-05-25T22:48:28.303Z,12.12
2019-05-25T22:51:35.174Z,12.17
2019-05-25T22:54:42.261Z,12.15
2019-05-25T22:57:49.031Z,12.14
2019-05-25T23:00:56.097Z,12.24
2019-05-25T23:04:02.966Z,12.20
2019-05-25T23:07:09.722Z,12.17
2019-05-25T23:10:16.217Z,12.20
2019-05-25T23:13:22.482Z,12.30
2019-05-25T23:16:29.376Z,12.18
2019-05-25T23:19:36.163Z,12.27
2019-05-25T23:22:43.000Z,12.13
2019-05-25T23:25:49.708Z,12.26
2019-05-25T23:28:56.422Z,12.17
2019-05-25T23:32:02.901Z,12.20
2019-05-25T23:35:09.466Z,12.07
2019-05-25T23:38:16.572Z,12.08
2019-05-25T23:41:23.127Z,12.08
2019-05-25T23:44:29.908Z,12.07
2019-05-25T23:47:36.428Z,12.13
2019-05-25T23:50:43.360Z,12.18
2019-05-25T23:53:49.921Z,12.17
2019-05-25T23:56:57.231Z,12.11
